Time;durP1;ratioP1;P1;durP2;ratioP2;P2;SDS_P1;SDS_P2;PMS_P1;PMS_P2;Temp;Humidity;BMP_temperature;BMP_pressure;BME280_temperature;BME280_humidity;BME280_pressure;Samples;Min_cycle;Max_cycle;Signal;HPM_P1;HPM_P2
2023/05/15 00:01:08;;;;;;;7.00;4.20;;;;;;;13.69;61.56;101208.35;110426;1233;62499;-68
2023/05/15 00:03:37;;;;;;;8.60;4.50;;;;;;;13.72;61.16;101211.97;110396;1235;60506;-67
2023/05/15 00:06:06;;;;;;;8.90;5.10;;;;;;;13.70;61.21;101215.16;110462;1234;60584;-68
2023/05/15 00:08:34;;;;;;;10.70;6.00;;;;;;;13.71;60.84;101215.70;110485;1233;63941;-68
2023/05/15 00:11:03;;;;;;;6.40;4.30;;;;;;;13.72;60.81;101217.37;110477;1233;61741;-69
2023/05/15 00:13:32;;;;;;;5.90;4.60;;;;;;;13.68;60.87;101213.51;110466;1234;70442;-69
2023/05/15 00:16:00;;;;;;;7.10;4.30;;;;;;;13.64;61.18;101215.05;110426;1233;74636;-70
2023/05/15 00:18:29;;;;;;;7.00;4.30;;;;;;;13.60;61.34;101216.79;110454;1235;57673;-69
2023/05/15 00:20:58;;;;;;;7.40;4.40;;;;;;;13.55;61.96;101217.86;110458;1234;57691;-69
2023/05/15 00:23:27;;;;;;;8.10;4.30;;;;;;;13.49;61.45;101214.42;110396;1234;72724;-69
2023/05/15 00:25:56;;;;;;;7.50;4.20;;;;;;;13.46;61.49;101217.86;110474;1235;73044;-69
2023/05/15 00:28:24;;;;;;;8.60;4.40;;;;;;;13.43;61.31;101216.48;110379;1234;70900;-69
2023/05/15 00:30:53;;;;;;;6.90;4.30;;;;;;;13.39;61.63;101216.77;110373;1233;63991;-69
2023/05/15 00:33:22;;;;;;;7.90;5.20;;;;;;;13.36;61.51;101214.94;110451;1235;60488;-69
2023/05/15 00:35:50;;;;;;;7.50;4.20;;;;;;;13.32;61.73;101213.52;110438;1235;60512;-69
2023/05/15 00:38:19;;;;;;;6.30;4.50;;;;;;;13.28;61.51;101209.58;110628;1233;63510;-69
2023/05/15 00:40:48;;;;;;;7.60;4.10;;;;;;;13.23;61.94;101211.36;110638;1235;60687;-69
2023/05/15 00:43:17;;;;;;;6.20;4.40;;;;;;;13.17;61.74;101208.12;110485;1233;70581;-69
2023/05/15 00:45:47;;;;;;;6.20;4.40;;;;;;;13.14;61.90;101204.81;110299;1235;74146;-69
2023/05/15 00:48:16;;;;;;;7.80;4.40;;;;;;;13.13;62.00;101208.77;110411;1236;60573;-69
2023/05/15 00:50:45;;;;;;;8.10;4.40;;;;;;;13.18;62.27;101209.11;110419;1233;61771;-69
2023/05/15 00:53:16;;;;;;;5.70;4.10;;;;;;;13.18;61.84;101209.96;110420;1234;64776;-69
2023/05/15 00:55:46;;;;;;;7.20;4.50;;;;;;;13.20;61.54;101212.07;110086;1235;72353;-69
2023/05/15 00:58:16;;;;;;;6.40;4.20;;;;;;;13.24;61.61;101212.01;110444;1233;61620;-69
2023/05/15 01:00:47;;;;;;;7.80;4.40;;;;;;;13.23;61.52;101208.55;110400;1234;74685;-68
2023/05/15 01:03:17;;;;;;;7.50;5.20;;;;;;;13.25;61.43;101209.45;110448;1236;57743;-69
2023/05/15 01:05:46;;;;;;;7.20;4.60;;;;;;;13.23;61.58;101210.86;110459;1235;59885;-68
2023/05/15 01:08:36;;;;;;;6.00;4.40;;;;;;;13.22;61.83;101214.74;110478;1234;73444;-69
2023/05/15 01:11:07;;;;;;;8.00;5.50;;;;;;;13.18;61.93;101212.41;110664;1234;72517;-70
2023/05/15 01:13:36;;;;;;;8.90;4.60;;;;;;;13.12;62.17;101211.46;110436;1234;60967;-69
2023/05/15 01:16:07;;;;;;;7.40;4.60;;;;;;;13.08;62.46;101210.36;110606;1233;62474;-68
2023/05/15 01:18:36;;;;;;;5.70;4.50;;;;;;;13.06;62.55;101213.30;110335;1238;60364;-69
2023/05/15 01:21:05;;;;;;;7.60;5.00;;;;;;;13.05;62.47;101213.56;110391;1235;57960;-69
2023/05/15 01:24:11;;;;;;;7.90;4.90;;;;;;;13.06;62.39;101210.02;110459;1235;73450;-69
2023/05/15 01:27:10;;;;;;;7.80;4.90;;;;;;;13.03;62.63;101213.18;110462;1234;70716;-68
2023/05/15 01:30:02;;;;;;;9.60;4.80;;;;;;;13.01;62.44;101211.96;110607;1235;60452;-68
2023/05/15 01:32:54;;;;;;;8.50;5.10;;;;;;;13.00;62.33;101203.79;110576;1234;63256;-68
2023/05/15 01:35:49;;;;;;;9.90;5.00;;;;;;;13.00;62.09;101202.93;110203;1238;57643;-70
2023/05/15 01:38:45;;;;;;;7.50;5.00;;;;;;;12.98;62.22;101203.38;110342;1233;61073;-70
2023/05/15 01:41:25;;;;;;;5.60;4.40;;;;;;;12.96;61.92;101200.21;110340;1234;73103;-69
2023/05/15 01:44:11;;;;;;;9.00;4.60;;;;;;;12.93;62.25;101200.11;110544;1235;61847;-69
2023/05/15 01:46:45;;;;;;;6.40;4.50;;;;;;;12.88;61.72;101197.52;110271;1234;69836;-69
2023/05/15 01:49:18;;;;;;;6.70;4.70;;;;;;;12.86;62.19;101194.19;110383;1236;63611;-70
2023/05/15 01:52:04;;;;;;;6.60;4.40;;;;;;;12.84;62.39;101196.10;110396;1236;58966;-69
2023/05/15 01:54:35;;;;;;;9.20;4.30;;;;;;;12.82;61.45;101196.38;110382;1235;57126;-69
2023/05/15 01:57:05;;;;;;;8.70;4.30;;;;;;;12.79;61.57;101192.38;110377;1233;72882;-69
2023/05/15 01:59:37;;;;;;;6.40;4.40;;;;;;;12.77;61.86;101191.52;110181;1238;61393;-69
2023/05/15 02:02:06;;;;;;;7.40;4.80;;;;;;;12.74;61.65;101189.79;110261;1235;70760;-69
2023/05/15 02:04:37;;;;;;;5.50;4.40;;;;;;;12.72;61.82;101190.13;110185;1238;64089;-68
2023/05/15 02:07:07;;;;;;;6.90;4.50;;;;;;;12.70;61.79;101188.92;110287;1237;57195;-70
2023/05/15 02:09:36;;;;;;;5.60;4.40;;;;;;;12.70;61.56;101179.81;110392;1235;60678;-69
2023/05/15 02:12:06;;;;;;;8.80;4.30;;;;;;;12.72;61.30;101169.33;110190;1235;74076;-69
2023/05/15 02:14:37;;;;;;;6.70;4.70;;;;;;;12.80;61.08;101172.98;110396;1238;61132;-70
2023/05/15 02:17:06;;;;;;;6.10;4.60;;;;;;;12.84;60.57;101164.99;110442;1239;59950;-68
2023/05/15 02:19:35;;;;;;;7.90;3.80;;;;;;;12.88;60.14;101159.76;110413;1236;63280;-67
2023/05/15 02:22:04;;;;;;;8.90;5.00;;;;;;;12.92;60.10;101157.55;110437;1235;57426;-67
2023/05/15 02:24:34;;;;;;;7.70;4.30;;;;;;;12.99;59.48;101156.67;110455;1234;61116;-68
2023/05/15 02:27:14;;;;;;;9.40;4.80;;;;;;;13.00;60.02;101155.00;110358;1236;62525;-67
2023/05/15 02:30:20;;;;;;;13.30;5.70;;;;;;;12.97;60.51;101151.36;110424;1235;60645;-67
2023/05/15 02:33:32;;;;;;;10.00;4.60;;;;;;;12.95;60.76;101152.94;110612;1235;59494;-68
2023/05/15 02:36:05;;;;;;;8.60;5.00;;;;;;;12.97;60.94;101152.80;110422;1236;62373;-67
2023/05/15 02:38:57;;;;;;;9.00;5.00;;;;;;;12.96;61.16;101152.31;110407;1236;57254;-68
2023/05/15 02:41:27;;;;;;;7.30;5.00;;;;;;;12.96;61.75;101154.23;110575;1235;57603;-69
2023/05/15 02:43:56;;;;;;;10.70;5.50;;;;;;;12.90;61.87;101154.70;110162;1234;73706;-68
2023/05/15 02:46:26;;;;;;;9.50;5.60;;;;;;;12.88;62.24;101158.70;110274;1235;72911;-68
2023/05/15 02:48:56;;;;;;;8.60;5.20;;;;;;;12.83;62.59;101159.29;110174;1236;60245;-68
2023/05/15 02:51:24;;;;;;;10.80;5.20;;;;;;;12.77;62.93;101161.46;110165;1235;63822;-69
2023/05/15 02:53:54;;;;;;;15.50;5.30;;;;;;;12.75;63.11;101162.86;110237;1236;57699;-69
2023/05/15 02:56:23;;;;;;;9.90;5.80;;;;;;;12.74;62.99;101157.80;110255;1234;61288;-69
2023/05/15 02:58:51;;;;;;;11.70;5.50;;;;;;;12.74;62.94;101159.41;110415;1237;63409;-66
2023/05/15 03:01:20;;;;;;;9.30;5.10;;;;;;;12.65;63.36;101146.09;110575;1235;61395;-68
2023/05/15 03:03:49;;;;;;;8.10;5.20;;;;;;;12.65;63.26;101143.33;110420;1236;59741;-68
2023/05/15 03:06:18;;;;;;;9.30;5.10;;;;;;;12.69;63.37;101150.68;110381;1235;73844;-69
2023/05/15 03:08:46;;;;;;;7.40;5.70;;;;;;;12.72;63.36;101158.16;110393;1236;57720;-67
2023/05/15 03:11:18;;;;;;;9.30;5.00;;;;;;;12.73;63.33;101164.17;110575;1235;57198;-69
2023/05/15 03:13:46;;;;;;;11.90;5.90;;;;;;;12.75;63.49;101169.84;110588;1236;62647;-69
2023/05/15 03:16:15;;;;;;;13.00;5.80;;;;;;;12.75;63.48;101170.20;110557;1236;61761;-69
2023/05/15 03:18:44;;;;;;;11.40;5.80;;;;;;;12.69;63.77;101164.32;110417;1235;69696;-69
2023/05/15 03:21:13;;;;;;;10.50;5.50;;;;;;;12.75;63.81;101173.33;110572;1235;73601;-69
2023/05/15 03:23:41;;;;;;;7.70;5.60;;;;;;;12.77;63.82;101173.00;110543;1236;61865;-69
2023/05/15 03:26:10;;;;;;;13.70;5.30;;;;;;;12.76;63.75;101174.12;110421;1235;57727;-68
2023/05/15 03:28:39;;;;;;;10.70;5.60;;;;;;;12.76;63.85;101175.52;110300;1238;63077;-71
2023/05/15 03:31:09;;;;;;;11.30;6.70;;;;;;;12.79;64.19;101176.04;110406;1233;72947;-71
2023/05/15 03:33:39;;;;;;;12.80;5.90;;;;;;;12.81;64.34;101177.59;110405;1236;60901;-71
2023/05/15 03:36:08;;;;;;;11.70;6.00;;;;;;;12.84;63.55;101174.91;110167;1238;72814;-69
2023/05/15 03:38:37;;;;;;;9.80;5.50;;;;;;;12.89;63.29;101170.88;110543;1236;60611;-70
2023/05/15 03:41:05;;;;;;;11.90;5.40;;;;;;;12.96;62.19;101172.98;110347;1236;57221;-68
2023/05/15 03:43:34;;;;;;;17.30;5.80;;;;;;;13.03;61.85;101170.23;110474;1235;62194;-68
2023/05/15 03:46:03;;;;;;;10.60;4.80;;;;;;;13.10;60.98;101168.11;110339;1233;71199;-69
2023/05/15 03:48:32;;;;;;;9.00;4.80;;;;;;;13.18;60.35;101166.23;110519;1233;71418;-69
2023/05/15 03:51:00;;;;;;;9.60;5.50;;;;;;;13.29;59.27;101172.61;110424;1235;64673;-70
2023/05/15 03:53:31;;;;;;;10.90;4.70;;;;;;;13.42;58.34;101169.54;110414;1236;57680;-69
2023/05/15 03:56:00;;;;;;;13.40;5.80;;;;;;;13.56;57.24;101164.02;110420;1235;60169;-71
2023/05/15 03:58:30;;;;;;;12.40;6.20;;;;;;;13.67;56.86;101156.69;110438;1236;64911;-68
2023/05/15 04:00:59;;;;;;;13.20;6.30;;;;;;;13.74;56.93;101157.20;110512;1235;61418;-70
2023/05/15 04:03:28;;;;;;;9.80;4.80;;;;;;;13.79;56.35;101152.42;110589;1235;59865;-69
2023/05/15 04:05:57;;;;;;;10.10;4.80;;;;;;;13.82;55.26;101149.41;110545;1234;73722;-70
2023/05/15 04:08:25;;;;;;;12.30;4.90;;;;;;;13.88;55.26;101150.84;110565;1235;61277;-70
2023/05/15 04:10:54;;;;;;;13.80;4.60;;;;;;;13.95;54.80;101153.80;110602;1236;57849;-68
2023/05/15 04:13:23;;;;;;;9.80;4.90;;;;;;;14.00;54.64;101159.89;110497;1233;62217;-69
2023/05/15 04:15:52;;;;;;;15.00;5.50;;;;;;;14.01;53.71;101162.41;110470;1235;72161;-68
2023/05/15 04:18:21;;;;;;;10.90;5.00;;;;;;;14.08;52.83;101159.62;110413;1235;60331;-69
2023/05/15 04:20:51;;;;;;;18.00;5.40;;;;;;;14.16;52.75;101159.86;110101;1235;378031;-68
2023/05/15 04:23:20;;;;;;;7.70;4.00;;;;;;;14.22;52.43;101159.02;110259;1235;61041;-68
2023/05/15 04:25:48;;;;;;;9.90;4.60;;;;;;;14.26;52.28;101159.54;110252;1236;60762;-68
2023/05/15 04:28:18;;;;;;;8.30;4.20;;;;;;;14.25;51.70;101154.17;110375;1236;62860;-68
2023/05/15 04:30:47;;;;;;;6.70;3.90;;;;;;;14.28;51.50;101149.77;110401;1234;61643;-71
2023/05/15 04:33:16;;;;;;;7.50;5.10;;;;;;;14.35;51.06;101147.60;110323;1233;59970;-68
2023/05/15 04:35:45;;;;;;;16.30;4.70;;;;;;;14.39;51.16;101144.15;110399;1235;73780;-68
2023/05/15 04:38:13;;;;;;;10.20;4.30;;;;;;;14.38;51.22;101149.84;110136;1236;61922;-69
2023/05/15 04:40:42;;;;;;;8.90;4.70;;;;;;;14.39;51.33;101149.21;110350;1235;57333;-68
2023/05/15 04:43:11;;;;;;;9.10;4.60;;;;;;;14.45;50.97;101149.40;110088;1235;61992;-69
2023/05/15 04:45:40;;;;;;;9.60;4.20;;;;;;;14.48;50.84;101146.39;110271;1235;72271;-70
2023/05/15 04:48:08;;;;;;;8.40;4.70;;;;;;;14.53;51.37;101145.85;110392;1234;69935;-70
2023/05/15 04:50:37;;;;;;;8.50;4.40;;;;;;;14.59;51.30;101144.80;110456;1235;62962;-67
2023/05/15 04:53:06;;;;;;;8.20;4.60;;;;;;;14.63;51.15;101144.33;110603;1236;57393;-69
2023/05/15 04:55:35;;;;;;;10.30;4.60;;;;;;;14.63;51.34;101141.34;110641;1235;61177;-69
2023/05/15 04:58:03;;;;;;;9.10;4.20;;;;;;;14.66;50.90;101138.45;110464;1235;74078;-69
2023/05/15 05:00:32;;;;;;;8.10;4.70;;;;;;;14.67;50.64;101141.85;110504;1235;61955;-69
2023/05/15 05:03:01;;;;;;;11.50;4.80;;;;;;;14.76;50.65;101147.36;110503;1235;68324;-68
2023/05/15 05:05:29;;;;;;;9.40;5.20;;;;;;;14.89;50.51;101143.91;110462;1234;65619;-66
2023/05/15 05:07:58;;;;;;;9.70;4.80;;;;;;;14.93;50.31;101134.59;110481;1235;57516;-69
2023/05/15 05:10:27;;;;;;;8.30;5.10;;;;;;;15.01;49.82;101133.02;110501;1235;59856;-70
2023/05/15 05:12:55;;;;;;;16.20;4.80;;;;;;;15.13;50.03;101134.46;110531;1235;72698;-69
2023/05/15 05:15:24;;;;;;;10.10;5.20;;;;;;;15.17;49.41;101134.36;110438;1235;62207;-69
2023/05/15 05:17:53;;;;;;;15.60;4.90;;;;;;;15.29;49.17;101131.74;110513;1235;70018;-69
2023/05/15 05:20:22;;;;;;;9.30;4.50;;;;;;;15.40;48.59;101129.05;110510;1235;62967;-69
2023/05/15 05:22:51;;;;;;;8.30;4.40;;;;;;;15.45;47.94;101123.55;110444;1235;61158;-69
2023/05/15 05:25:20;;;;;;;8.20;4.70;;;;;;;15.43;47.89;101122.16;110609;1232;61397;-69
2023/05/15 05:27:48;;;;;;;8.70;4.60;;;;;;;15.55;47.92;101126.64;110440;1234;73381;-69
2023/05/15 05:30:17;;;;;;;9.70;4.40;;;;;;;15.57;47.42;101126.09;110627;1235;61465;-69
2023/05/15 05:32:46;;;;;;;10.60;4.40;;;;;;;15.59;47.64;101127.17;110640;1233;59786;-69
2023/05/15 05:35:15;;;;;;;11.80;4.30;;;;;;;15.64;47.56;101124.54;110564;1235;72086;-69
2023/05/15 05:37:43;;;;;;;11.20;4.80;;;;;;;15.74;47.88;101131.01;110569;1235;57712;-70
2023/05/15 05:40:12;;;;;;;8.20;4.20;;;;;;;15.84;47.77;101134.03;110506;1234;57799;-70
2023/05/15 05:42:41;;;;;;;11.80;4.80;;;;;;;15.88;47.27;101135.92;110414;1233;62204;-69
2023/05/15 05:45:10;;;;;;;9.70;4.20;;;;;;;15.82;47.20;101132.64;110520;1234;61426;-75
2023/05/15 05:47:39;;;;;;;12.50;4.70;;;;;;;15.78;47.77;101128.89;110351;1234;59147;-76
2023/05/15 05:50:08;;;;;;;11.00;4.30;;;;;;;15.87;46.38;101128.66;110455;1234;62505;-76
2023/05/15 05:52:37;;;;;;;11.10;4.80;;;;;;;16.01;46.67;101122.34;110208;1238;61243;-77
2023/05/15 05:55:06;;;;;;;10.80;4.10;;;;;;;16.09;46.51;101122.66;110417;1235;61032;-77
2023/05/15 05:57:34;;;;;;;6.80;3.90;;;;;;;16.18;45.16;101117.34;110441;1234;74154;-76
2023/05/15 06:00:13;;;;;;;13.00;3.90;;;;;;;16.29;44.38;101123.31;110412;1234;61359;-78
2023/05/15 06:02:42;;;;;;;8.20;3.50;;;;;;;16.39;43.31;101123.15;110362;1233;60026;-77
2023/05/15 06:05:11;;;;;;;6.20;3.20;;;;;;;16.46;42.78;101116.30;110384;1235;63526;-76
2023/05/15 06:07:40;;;;;;;7.10;3.30;;;;;;;16.54;43.04;101116.81;110412;1235;57722;-76
2023/05/15 06:10:09;;;;;;;6.20;3.50;;;;;;;16.58;42.60;101110.48;110423;1236;57951;-78
2023/05/15 06:12:38;;;;;;;8.40;3.90;;;;;;;16.60;42.14;101108.73;110341;1234;62182;-77
2023/05/15 06:15:07;;;;;;;10.30;4.00;;;;;;;16.72;42.05;101102.74;110436;1233;69680;-77
2023/05/15 06:17:37;;;;;;;8.60;3.60;;;;;;;16.83;41.83;101106.66;110279;1233;59830;-77
2023/05/15 06:20:07;;;;;;;8.20;4.10;;;;;;;16.96;41.45;101106.52;110346;1235;74458;-77
2023/05/15 06:22:37;;;;;;;7.60;3.30;;;;;;;17.09;41.25;101103.66;110456;1236;57645;-77
2023/05/15 06:25:06;;;;;;;7.70;3.60;;;;;;;17.28;41.03;101105.65;110453;1234;61051;-76
2023/05/15 06:27:35;;;;;;;8.10;3.70;;;;;;;17.35;41.34;101100.88;110260;1235;62742;-77
2023/05/15 06:30:05;;;;;;;6.90;3.60;;;;;;;17.43;40.98;101102.09;110444;1235;69967;-76
2023/05/15 06:32:34;;;;;;;7.20;3.30;;;;;;;17.44;40.94;101105.14;110501;1233;60383;-77
2023/05/15 06:35:03;;;;;;;12.00;3.80;;;;;;;17.52;40.58;101101.52;110252;1234;63240;-77
2023/05/15 06:37:32;;;;;;;9.40;3.70;;;;;;;17.53;39.90;101085.92;110473;1236;57662;-77
2023/05/15 06:40:01;;;;;;;8.00;3.80;;;;;;;17.56;40.05;101086.38;110314;1238;57659;-78
2023/05/15 06:42:30;;;;;;;8.30;3.60;;;;;;;17.66;40.06;101091.39;110504;1235;63162;-77
2023/05/15 06:45:00;;;;;;;7.50;3.30;;;;;;;17.74;39.97;101091.70;110382;1234;63241;-77
2023/05/15 06:47:29;;;;;;;4.50;3.40;;;;;;;17.92;39.59;101081.69;110366;1235;70436;-77
2023/05/15 06:49:57;;;;;;;7.90;3.80;;;;;;;18.01;38.85;101083.96;110475;1235;74316;-77
2023/05/15 06:52:26;;;;;;;9.40;3.50;;;;;;;18.12;38.24;101078.98;110347;1235;57700;-77
2023/05/15 06:54:55;;;;;;;5.00;3.20;;;;;;;18.28;37.93;101075.72;110364;1235;57652;-77
2023/05/15 06:57:24;;;;;;;7.20;3.70;;;;;;;18.10;38.10;101066.14;110472;1234;72713;-77
2023/05/15 06:59:52;;;;;;;11.90;3.80;;;;;;;18.27;37.85;101065.52;110454;1233;62343;-78
2023/05/15 07:02:21;;;;;;;11.10;3.90;;;;;;;18.33;36.94;101060.19;110443;1235;59261;-77
2023/05/15 07:04:50;;;;;;;9.20;3.80;;;;;;;18.43;37.14;101062.22;110391;1235;73207;-77
2023/05/15 07:07:19;;;;;;;10.20;3.30;;;;;;;18.53;36.66;101054.82;110399;1235;57670;-77
2023/05/15 07:09:49;;;;;;;15.10;3.80;;;;;;;18.53;36.61;101057.38;110309;1234;60958;-77
2023/05/15 07:12:17;;;;;;;9.30;2.90;;;;;;;18.06;36.93;101052.48;110463;1234;73866;-77
2023/05/15 07:14:46;;;;;;;5.20;2.90;;;;;;;18.25;36.81;101054.49;110339;1234;62135;-77
2023/05/15 07:17:15;;;;;;;11.60;3.10;;;;;;;18.27;36.77;101053.86;110448;1236;60042;-77
2023/05/15 07:19:44;;;;;;;10.40;3.20;;;;;;;18.39;36.64;101056.41;110336;1234;73814;-77
2023/05/15 07:22:12;;;;;;;7.40;3.10;;;;;;;18.29;36.50;101059.53;110408;1236;61583;-76
2023/05/15 07:24:41;;;;;;;7.80;3.10;;;;;;;18.22;36.69;101056.48;110434;1235;57273;-76
2023/05/15 07:27:10;;;;;;;10.50;3.20;;;;;;;18.29;36.97;101059.86;110422;1235;72292;-77
2023/05/15 07:29:38;;;;;;;11.70;3.50;;;;;;;18.50;36.78;101057.55;110412;1235;71127;-76
2023/05/15 07:32:07;;;;;;;5.20;2.90;;;;;;;18.55;36.78;101061.16;110323;1234;59920;-77
2023/05/15 07:34:36;;;;;;;11.40;3.20;;;;;;;18.60;36.49;101066.29;110411;1235;72928;-77
2023/05/15 07:37:04;;;;;;;17.40;3.50;;;;;;;18.58;36.22;101057.55;110357;1235;60873;-77
2023/05/15 07:39:33;;;;;;;9.50;3.20;;;;;;;18.55;36.44;101057.42;110202;1238;57751;-76
2023/05/15 07:42:02;;;;;;;12.80;3.20;;;;;;;18.72;36.37;101057.39;110411;1235;62182;-78
2023/05/15 07:44:31;;;;;;;17.50;3.30;;;;;;;18.87;36.09;101061.98;110401;1234;71341;-77
2023/05/15 07:46:59;;;;;;;9.30;3.10;;;;;;;18.81;36.09;101053.92;110312;1233;70882;-77
2023/05/15 07:49:29;;;;;;;11.50;3.30;;;;;;;18.97;35.96;101054.31;110247;1235;73860;-77
2023/05/15 07:51:57;;;;;;;11.70;3.30;;;;;;;19.06;35.52;101045.27;110251;1236;57772;-77
2023/05/15 07:54:26;;;;;;;9.20;3.30;;;;;;;19.13;35.62;101036.59;110220;1234;61806;-76
2023/05/15 07:56:56;;;;;;;4.90;3.00;;;;;;;19.38;35.48;101038.58;110206;1235;63865;-77
2023/05/15 07:59:26;;;;;;;7.00;3.60;;;;;;;19.45;35.86;101028.24;110196;1235;72582;-77
2023/05/15 08:01:54;;;;;;;10.30;3.30;;;;;;;19.69;35.79;101023.54;110257;1233;70853;-78
2023/05/15 08:04:23;;;;;;;6.00;2.70;;;;;;;19.74;35.58;101018.52;109984;1233;63346;-77
2023/05/15 08:06:52;;;;;;;4.00;3.00;;;;;;;19.66;35.61;101019.35;110236;1236;57670;-77
2023/05/15 08:09:21;;;;;;;8.40;3.30;;;;;;;19.70;36.00;101023.77;110229;1235;60014;-77
2023/05/15 08:11:49;;;;;;;12.80;3.20;;;;;;;19.82;35.44;101016.60;110424;1234;73585;-77
2023/05/15 08:14:18;;;;;;;7.60;3.30;;;;;;;19.74;35.46;101015.66;110408;1234;61179;-76
2023/05/15 08:16:50;;;;;;;6.30;3.20;;;;;;;19.82;35.37;101008.09;110436;1236;59977;-77
2023/05/15 08:19:20;;;;;;;5.90;3.20;;;;;;;19.62;35.74;100994.19;110430;1235;73865;-77
2023/05/15 08:21:50;;;;;;;6.60;3.30;;;;;;;19.95;35.27;100999.52;110446;1235;60812;-76
2023/05/15 08:24:18;;;;;;;7.20;3.40;;;;;;;20.06;35.23;100987.23;110406;1234;60727;-78
2023/05/15 08:26:47;;;;;;;7.30;3.10;;;;;;;20.17;35.47;100985.60;110403;1236;63486;-76
2023/05/15 08:29:16;;;;;;;6.60;3.20;;;;;;;20.33;35.31;100985.10;110435;1234;61713;-78
2023/05/15 08:31:45;;;;;;;8.40;3.50;;;;;;;20.35;35.20;100982.23;110436;1235;59977;-76
2023/05/15 08:34:14;;;;;;;15.90;4.10;;;;;;;20.43;34.66;100972.71;110423;1233;73200;-76
2023/05/15 08:36:43;;;;;;;9.60;3.90;;;;;;;20.47;33.93;100975.66;110400;1235;61386;-77
2023/05/15 08:39:12;;;;;;;11.00;3.40;;;;;;;20.19;34.57;100969.45;110425;1234;60411;-76
2023/05/15 08:42:07;;;;;;;7.60;3.40;;;;;;;20.30;34.72;100976.53;110417;1234;74093;-76
2023/05/15 08:44:38;;;;;;;5.90;3.50;;;;;;;20.49;35.10;100980.14;110399;1236;61284;-77
2023/05/15 08:47:07;;;;;;;4.80;3.30;;;;;;;20.77;35.09;100973.90;110342;1234;70383;-76
2023/05/15 08:50:13;;;;;;;15.10;4.00;;;;;;;20.67;34.48;100974.14;110326;1233;74396;-77
2023/05/15 08:52:46;;;;;;;8.10;3.20;;;;;;;20.17;33.90;100970.23;110322;1237;62850;-77
2023/05/15 08:55:16;;;;;;;15.70;3.50;;;;;;;20.24;34.25;100974.88;110338;1234;60819;-76
2023/05/15 08:57:47;;;;;;;7.80;3.40;;;;;;;20.42;33.43;100983.79;110320;1234;74083;-77
2023/05/15 09:00:19;;;;;;;9.10;3.40;;;;;;;20.35;33.14;100971.96;110323;1237;62085;-76
2023/05/15 09:02:48;;;;;;;13.90;3.90;;;;;;;20.57;32.75;100983.41;110455;1236;60008;-76
2023/05/15 09:05:17;;;;;;;9.00;3.40;;;;;;;20.64;32.65;100983.70;110429;1236;62452;-78
2023/05/15 09:07:47;;;;;;;9.90;3.70;;;;;;;20.61;32.59;100980.45;110433;1235;57087;-76
2023/05/15 09:10:15;;;;;;;10.20;3.40;;;;;;;20.78;32.35;100981.37;110348;1239;57283;-76
2023/05/15 09:12:44;;;;;;;5.40;2.80;;;;;;;20.95;32.21;100977.44;110465;1235;62898;-77
2023/05/15 09:15:16;;;;;;;10.00;3.50;;;;;;;21.02;32.38;100971.96;110342;1238;61625;-77
2023/05/15 09:17:45;;;;;;;8.40;3.20;;;;;;;21.02;32.17;100972.36;110445;1236;59841;-76
2023/05/15 09:20:32;;;;;;;10.00;3.20;;;;;;;20.92;31.52;100971.16;110443;1236;62476;-76
2023/05/15 09:23:21;;;;;;;7.30;3.10;;;;;;;20.88;31.70;100962.05;110378;1237;57625;-76
2023/05/15 09:25:52;;;;;;;8.00;2.90;;;;;;;21.15;31.68;100969.11;110260;1238;57749;-77
2023/05/15 09:28:33;;;;;;;9.00;3.30;;;;;;;21.28;31.46;100959.09;110244;1235;62249;-75
2023/05/15 09:31:04;;;;;;;10.90;3.20;;;;;;;21.02;31.69;100946.09;110350;1235;61391;-76
2023/05/15 09:33:36;;;;;;;7.30;2.90;;;;;;;20.97;32.02;100945.05;110373;1237;60033;-76
2023/05/15 09:36:07;;;;;;;6.40;3.70;;;;;;;21.15;31.57;100931.20;110295;1234;73213;-77
2023/05/15 09:38:42;;;;;;;10.60;3.00;;;;;;;21.41;31.75;100934.94;110411;1235;57765;-76
2023/05/15 09:41:11;;;;;;;16.10;3.10;;;;;;;21.83;31.38;100939.17;110166;1234;60427;-76
2023/05/15 09:43:40;;;;;;;6.60;3.10;;;;;;;21.82;31.20;100935.71;110454;1236;73914;-77
2023/05/15 09:46:11;;;;;;;6.60;2.80;;;;;;;21.94;31.27;100940.13;110427;1234;72640;-76
2023/05/15 09:48:40;;;;;;;8.30;3.00;;;;;;;21.92;31.37;100943.45;110425;1235;59854;-77
2023/05/15 09:51:17;;;;;;;10.70;3.20;;;;;;;21.76;31.60;100950.46;110297;1238;63154;-76
2023/05/15 09:53:51;;;;;;;5.10;3.00;;;;;;;21.91;31.39;100953.52;110199;1238;59821;-77
2023/05/15 09:56:21;;;;;;;4.30;2.90;;;;;;;22.04;31.23;100946.58;110273;1235;58326;-77
2023/05/15 09:58:55;;;;;;;6.20;3.40;;;;;;;22.11;31.25;100947.98;110361;1235;74028;-76
2023/05/15 10:01:26;;;;;;;8.00;3.10;;;;;;;21.83;31.96;100946.55;110402;1238;62115;-76
2023/05/15 10:04:05;;;;;;;5.10;3.00;;;;;;;22.10;31.84;100955.84;110522;1235;60433;-75
2023/05/15 10:06:47;;;;;;;11.90;3.30;;;;;;;22.16;30.60;100938.30;110266;1234;73612;-75
2023/05/15 10:09:16;;;;;;;11.60;3.20;;;;;;;22.14;30.46;100941.21;110144;1238;57771;-76
2023/05/15 10:11:52;;;;;;;6.50;2.90;;;;;;;22.12;30.25;100943.94;110373;1235;61214;-77
2023/05/15 10:14:22;;;;;;;6.80;3.00;;;;;;;22.19;30.10;100942.06;110403;1236;74814;-77
2023/05/15 10:16:52;;;;;;;11.70;3.30;;;;;;;22.12;29.94;100944.12;110165;1234;72980;-76
2023/05/15 10:19:24;;;;;;;6.30;2.90;;;;;;;22.12;29.72;100947.77;110306;1233;70852;-76
2023/05/15 10:21:55;;;;;;;8.80;2.70;;;;;;;21.89;30.46;100941.48;110382;1234;73896;-77
2023/05/15 10:24:27;;;;;;;6.10;2.60;;;;;;;22.42;30.82;100949.09;110399;1235;60740;-76
2023/05/15 10:26:57;;;;;;;8.30;3.00;;;;;;;22.61;30.67;100937.70;110296;1235;58254;-76
2023/05/15 10:29:28;;;;;;;8.70;2.80;;;;;;;22.76;30.53;100939.42;110273;1237;63782;-77
2023/05/15 10:31:59;;;;;;;8.70;2.70;;;;;;;22.92;30.33;100937.41;110272;1233;72148;-76
2023/05/15 10:34:29;;;;;;;4.90;2.80;;;;;;;23.09;30.23;100940.10;110148;1235;60326;-76
2023/05/15 10:36:59;;;;;;;9.40;2.90;;;;;;;23.17;30.56;100949.58;110218;1236;73926;-76
2023/05/15 10:39:28;;;;;;;6.30;2.80;;;;;;;22.83;30.92;100956.06;110205;1235;61610;-76
2023/05/15 10:41:59;;;;;;;6.70;2.50;;;;;;;23.07;30.69;100946.95;110120;1235;57732;-76
2023/05/15 10:44:27;;;;;;;8.30;3.10;;;;;;;23.13;30.72;100947.55;110243;1235;74425;-76
2023/05/15 10:46:56;;;;;;;4.90;3.00;;;;;;;23.18;30.68;100939.94;110245;1236;61116;-76
2023/05/15 10:49:26;;;;;;;5.80;2.70;;;;;;;22.97;30.76;100937.59;109988;1235;69716;-76
2023/05/15 10:51:55;;;;;;;6.60;3.00;;;;;;;23.34;30.93;100935.09;110209;1235;74629;-76
2023/05/15 10:54:23;;;;;;;12.70;3.20;;;;;;;23.24;30.94;100933.61;110192;1235;58319;-76
2023/05/15 10:56:55;;;;;;;7.60;3.00;;;;;;;22.82;31.28;100929.37;110003;1234;59386;-77
2023/05/15 10:59:32;;;;;;;7.60;3.00;;;;;;;23.14;31.46;100932.55;110083;1237;73881;-76
2023/05/15 11:02:22;;;;;;;6.40;2.80;;;;;;;23.16;31.03;100930.58;110116;1238;71085;-76
2023/05/15 11:05:02;;;;;;;8.60;2.90;;;;;;;23.39;31.35;100928.45;110173;1234;60263;-75
2023/05/15 11:07:31;;;;;;;7.40;2.80;;;;;;;23.41;31.86;100931.85;110224;1234;63245;-76
2023/05/15 11:10:29;;;;;;;6.70;3.10;;;;;;;23.59;31.47;100939.83;110149;1235;57812;-75
2023/05/15 11:12:58;;;;;;;8.40;3.00;;;;;;;23.65;31.20;100926.02;110301;1235;60574;-75
2023/05/15 11:15:41;;;;;;;6.50;3.10;;;;;;;23.70;30.57;100925.29;110338;1233;64162;-75
2023/05/15 11:18:10;;;;;;;;;;;;;;;23.71;29.80;100939.05;110314;1234;72208;-75
2023/05/15 11:20:41;;;;;;;6.90;2.80;;;;;;;23.95;29.40;100946.70;110319;1234;70050;-77
2023/05/15 11:23:10;;;;;;;7.40;2.50;;;;;;;23.78;28.77;100943.10;110298;1234;63291;-78
2023/05/15 11:25:39;;;;;;;5.60;2.60;;;;;;;23.56;28.41;100934.71;110401;1232;60968;-76
2023/05/15 11:28:21;;;;;;;9.80;3.00;;;;;;;23.48;28.60;100937.81;110417;1233;62046;-77
2023/05/15 11:30:51;;;;;;;5.80;2.40;;;;;;;23.55;28.78;100937.28;110216;1235;74907;-77
2023/05/15 11:33:20;;;;;;;6.50;2.50;;;;;;;23.92;28.52;100937.91;110415;1235;62009;-77